Glynn, Louisiana
Current Conditions -  °F | °C
As of 8:55 AM on Thursday 30 Oct 2014 (Local Time) from KHZR Reporting Station
Clear Clear  
Wind Chill: 58°   Ceiling: Unl
Heat Index: 58°   Visibility: 10mi
Dew Point: 47°   Wind: 5mph
Humidity: 68%   Direction: 60°ENE
Pressure: 30.15"   Gusts: NA
Location:  30.63°N, 91.36°W
Report Text: KHZR 301355Z AUTO 06004KT 10SM CLR 14/08 A3015 RMK AO2 T01420083
Loading
Personal Weather Stations






























Interactive Weather Map
Tropical Storm Tracking
New forecast layout! Learn more

10-Day Weather Forecast

Advertisements
Track Severe Weather on mobile